createdAt,value
2019-02-05T00:00:38.604Z,350.00
2019-02-05T00:03:11.595Z,352.25
2019-02-05T00:05:43.406Z,365.25
2019-02-05T00:08:16.545Z,347.25
2019-02-05T00:10:47.924Z,336.50
2019-02-05T00:13:19.824Z,344.25
2019-02-05T00:15:51.471Z,351.75
2019-02-05T00:18:23.094Z,346.25
2019-02-05T00:20:55.745Z,352.25
2019-02-05T00:23:27.590Z,324.25
2019-02-05T00:26:05.907Z,299.00
2019-02-05T00:28:32.741Z,332.50
2019-02-05T00:31:05.534Z,321.50
2019-02-05T00:33:37.055Z,316.75
2019-02-05T00:36:08.520Z,335.75
2019-02-05T00:38:40.050Z,327.00
2019-02-05T00:41:11.953Z,331.25
2019-02-05T00:43:43.518Z,334.50
2019-02-05T00:46:15.458Z,314.00
2019-02-05T00:48:47.433Z,327.25
2019-02-05T00:51:18.685Z,310.25
2019-02-05T00:53:50.062Z,314.00
2019-02-05T00:56:21.379Z,317.00
2019-02-05T00:58:53.789Z,318.25
2019-02-05T01:01:25.321Z,306.75
2019-02-05T01:03:56.668Z,313.50
2019-02-05T01:06:28.337Z,321.75
2019-02-05T01:08:59.981Z,300.25
2019-02-05T01:11:31.396Z,299.25
2019-02-05T01:14:03.544Z,313.50
2019-02-05T01:16:37.663Z,310.25
2019-02-05T01:19:09.466Z,319.50
2019-02-05T01:21:41.151Z,320.00
2019-02-05T01:24:12.836Z,314.25
2019-02-05T01:26:44.568Z,323.50
2019-02-05T01:29:16.718Z,316.00
2019-02-05T01:31:48.303Z,304.50
2019-02-05T01:34:20.005Z,328.50
2019-02-05T01:36:51.575Z,306.25
2019-02-05T01:39:23.019Z,314.25
2019-02-05T01:41:54.617Z,312.75
2019-02-05T01:44:26.302Z,327.50
2019-02-05T01:46:57.375Z,322.75
2019-02-05T01:49:28.575Z,307.50
2019-02-05T01:52:00.248Z,315.00
2019-02-05T01:54:31.810Z,320.00
2019-02-05T01:57:03.320Z,322.75
2019-02-05T01:59:34.975Z,316.00
2019-02-05T02:02:06.753Z,310.50
2019-02-05T02:04:38.390Z,329.25
2019-02-05T02:07:10.063Z,320.75
2019-02-05T02:09:41.469Z,321.00
2019-02-05T02:12:13.119Z,354.50
2019-02-05T02:14:44.752Z,331.50
2019-02-05T02:17:16.221Z,308.00
2019-02-05T02:19:47.980Z,331.25
2019-02-05T02:22:19.213Z,337.75
2019-02-05T02:24:50.882Z,320.75
2019-02-05T02:27:22.888Z,340.25
2019-02-05T02:29:54.522Z,330.00
2019-02-05T02:32:26.294Z,338.00
2019-02-05T02:34:57.757Z,349.00
2019-02-05T02:37:29.173Z,346.50
2019-02-05T02:40:01.023Z,363.75
2019-02-05T02:42:32.781Z,339.25
2019-02-05T02:45:05.102Z,364.25
2019-02-05T02:47:36.334Z,392.75
2019-02-05T02:50:08.203Z,380.25
2019-02-05T02:52:40.161Z,371.20
2019-02-05T02:55:11.738Z,387.00
2019-02-05T02:57:43.852Z,373.50
2019-02-05T03:00:17.334Z,370.25
2019-02-05T03:02:49.359Z,361.00
2019-02-05T03:05:22.633Z,395.60
2019-02-05T03:07:54.253Z,360.50
2019-02-05T03:10:32.417Z,435.00
2019-02-05T03:13:03.748Z,373.50
2019-02-05T03:15:35.322Z,411.60
2019-02-05T03:18:06.674Z,384.40
2019-02-05T03:20:38.403Z,426.20
2019-02-05T03:23:09.763Z,449.60
2019-02-05T03:25:41.411Z,451.50
2019-02-05T03:28:13.311Z,409.20
2019-02-05T03:30:44.966Z,431.20
2019-02-05T03:33:16.214Z,441.80
2019-02-05T03:35:47.682Z,387.80
2019-02-05T03:38:19.285Z,396.40
2019-02-05T03:41:09.803Z,380.20
2019-02-05T03:43:42.238Z,330.50
2019-02-05T03:46:15.143Z,320.50
2019-02-05T03:48:47.535Z,282.25
2019-02-05T03:52:05.465Z,285.25
2019-02-05T03:55:14.922Z,245.50
2019-02-05T03:58:18.887Z,267.00
2019-02-05T04:01:21.287Z,241.25
2019-02-05T04:04:38.138Z,225.75
2019-02-05T04:07:27.624Z,244.50
2019-02-05T04:10:37.365Z,233.50
2019-02-05T04:14:02.337Z,239.75
2019-02-05T04:17:22.279Z,263.00
2019-02-05T04:20:28.210Z,275.75
2019-02-05T04:23:49.305Z,272.00
2019-02-05T04:26:45.075Z,270.50
2019-02-05T04:29:47.601Z,252.75
2019-02-05T04:32:30.463Z,286.50
2019-02-05T04:35:52.631Z,261.00
2019-02-05T04:39:07.209Z,261.50
2019-02-05T04:42:03.264Z,249.25
2019-02-05T04:45:02.183Z,242.50
2019-02-05T04:48:23.052Z,259.50
2019-02-05T04:51:50.499Z,248.00
2019-02-05T04:54:34.294Z,246.00
2019-02-05T04:57:28.456Z,225.50
2019-02-05T05:00:46.660Z,237.00
2019-02-05T05:03:56.634Z,235.25
2019-02-05T05:07:08.633Z,233.75
2019-02-05T05:10:00.711Z,197.50
2019-02-05T05:12:32.903Z,200.25
2019-02-05T05:15:04.514Z,221.75
2019-02-05T05:17:36.221Z,216.50
2019-02-05T05:20:10.541Z,204.25
2019-02-05T05:22:43.347Z,212.00
2019-02-05T05:25:15.199Z,197.00
2019-02-05T05:27:46.704Z,195.00
2019-02-05T05:30:19.674Z,195.25
2019-02-05T05:32:51.377Z,179.00
2019-02-05T05:35:22.658Z,192.00
2019-02-05T05:37:54.787Z,188.00
2019-02-05T05:40:26.168Z,164.25
2019-02-05T05:42:57.627Z,179.00
2019-02-05T05:45:28.741Z,171.75
2019-02-05T05:48:00.073Z,157.00
2019-02-05T05:50:31.756Z,165.20
2019-02-05T05:53:03.287Z,174.00
2019-02-05T05:55:34.953Z,164.00
2019-02-05T05:58:06.609Z,154.00
2019-02-05T06:00:38.420Z,167.40
2019-02-05T06:03:10.204Z,153.00
2019-02-05T06:05:41.791Z,142.80
2019-02-05T06:08:13.216Z,143.20
2019-02-05T06:10:50.030Z,151.00
2019-02-05T06:13:21.127Z,134.20
2019-02-05T06:15:55.812Z,122.00
2019-02-05T06:18:31.265Z,118.80
2019-02-05T06:21:02.634Z,125.80
2019-02-05T06:23:34.008Z,135.00
2019-02-05T06:26:05.339Z,123.00
2019-02-05T06:28:38.122Z,141.20
2019-02-05T06:31:13.260Z,108.80
2019-02-05T06:33:45.153Z,114.80
2019-02-05T06:36:17.964Z,111.80
2019-02-05T06:38:49.162Z,121.60
2019-02-05T06:41:21.056Z,123.20
2019-02-05T06:43:52.293Z,109.20
2019-02-05T06:46:23.436Z,137.20
2019-02-05T06:48:55.044Z,129.40
2019-02-05T06:51:26.323Z,112.80
2019-02-05T06:53:57.463Z,109.20
2019-02-05T06:56:29.019Z,116.20
2019-02-05T06:59:00.268Z,139.20
2019-02-05T07:01:33.117Z,116.40
2019-02-05T07:04:04.822Z,103.60
2019-02-05T07:06:36.521Z,128.00
2019-02-05T07:09:11.277Z,100.00
2019-02-05T07:11:42.624Z,120.60
2019-02-05T07:14:14.032Z,106.20
2019-02-05T07:16:45.405Z,123.60
2019-02-05T07:19:16.676Z,114.40
2019-02-05T07:21:48.219Z,117.60
2019-02-05T07:24:20.869Z,116.60
2019-02-05T07:26:52.520Z,128.40
2019-02-05T07:29:24.175Z,144.20
2019-02-05T07:31:55.295Z,128.20
2019-02-05T07:34:26.514Z,120.00
2019-02-05T07:36:57.671Z,120.00
2019-02-05T07:39:28.870Z,112.80
2019-02-05T07:41:59.925Z,127.80
2019-02-05T07:44:31.432Z,96.60
2019-02-05T07:47:03.209Z,104.80
2019-02-05T07:49:34.433Z,97.60
2019-02-05T07:52:06.059Z,100.00
2019-02-05T07:54:37.297Z,97.20
2019-02-05T07:57:08.842Z,107.80
2019-02-05T07:59:40.692Z,109.60
2019-02-05T08:02:12.564Z,105.80
2019-02-05T08:04:44.062Z,115.60
2019-02-05T08:07:17.150Z,112.00
2019-02-05T08:09:48.499Z,120.00
2019-02-05T08:12:19.876Z,110.80
2019-02-05T08:14:51.937Z,111.40
2019-02-05T08:17:23.327Z,105.20
2019-02-05T08:19:55.540Z,100.20
2019-02-05T08:22:27.913Z,103.80
2019-02-05T08:25:00.456Z,110.40
2019-02-05T08:27:31.865Z,105.20
2019-02-05T08:30:03.375Z,119.60
2019-02-05T08:32:35.540Z,115.40
2019-02-05T08:35:08.352Z,114.00
2019-02-05T08:37:39.679Z,109.40
2019-02-05T08:40:14.168Z,98.40
2019-02-05T08:42:46.186Z,104.80
2019-02-05T08:45:20.403Z,102.80
2019-02-05T08:47:52.549Z,125.60
2019-02-05T08:50:27.436Z,122.60
2019-02-05T08:52:58.998Z,121.20
2019-02-05T08:55:30.992Z,124.60
2019-02-05T08:58:04.828Z,117.20
2019-02-05T09:00:38.074Z,112.00
2019-02-05T09:03:11.019Z,112.20
2019-02-05T09:05:43.122Z,113.40
2019-02-05T09:08:14.481Z,123.80
2019-02-05T09:10:46.071Z,123.40
2019-02-05T09:13:17.580Z,126.40
2019-02-05T09:15:49.197Z,125.80
2019-02-05T09:18:20.585Z,125.00
2019-02-05T09:20:52.030Z,125.00
2019-02-05T09:23:24.109Z,109.80
2019-02-05T09:25:55.987Z,121.60
2019-02-05T09:28:27.456Z,111.20
2019-02-05T09:30:58.721Z,121.40
2019-02-05T09:33:30.377Z,120.20
2019-02-05T09:36:02.478Z,123.20
2019-02-05T09:38:34.167Z,118.20
2019-02-05T09:41:05.671Z,107.00
2019-02-05T09:43:37.211Z,110.00
2019-02-05T09:46:08.650Z,114.20
2019-02-05T09:48:39.934Z,114.20
2019-02-05T09:51:11.343Z,109.60
2019-02-05T09:53:43.550Z,110.80
2019-02-05T09:56:15.655Z,106.60
2019-02-05T09:58:47.239Z,104.00
2019-02-05T10:01:18.864Z,113.80
2019-02-05T10:03:50.326Z,123.40
2019-02-05T10:06:21.818Z,118.00
2019-02-05T10:08:53.229Z,111.00
2019-02-05T10:11:24.675Z,107.20
2019-02-05T10:13:56.169Z,117.20
2019-02-05T10:16:27.369Z,121.00
2019-02-05T10:18:58.848Z,117.60
2019-02-05T10:21:30.373Z,123.40
2019-02-05T10:24:02.418Z,125.20
2019-02-05T10:26:33.713Z,135.20
2019-02-05T10:29:06.055Z,149.60
2019-02-05T10:31:40.069Z,137.80
2019-02-05T10:34:11.846Z,139.20
2019-02-05T10:36:43.174Z,152.40
2019-02-05T10:39:14.878Z,152.80
2019-02-05T10:41:46.348Z,139.00
2019-02-05T10:44:18.213Z,143.40
2019-02-05T10:46:49.993Z,142.60
2019-02-05T10:49:21.560Z,133.60
2019-02-05T10:51:53.339Z,138.40
2019-02-05T10:54:25.092Z,147.80
2019-02-05T10:56:56.740Z,137.80
2019-02-05T10:59:28.621Z,144.00
2019-02-05T11:02:00.657Z,135.20
2019-02-05T11:04:32.304Z,129.40
2019-02-05T11:07:03.883Z,134.00
2019-02-05T11:09:37.629Z,134.20
2019-02-05T11:12:11.988Z,140.80
2019-02-05T11:14:43.671Z,149.20
2019-02-05T11:17:15.116Z,140.60
2019-02-05T11:19:47.480Z,138.00
2019-02-05T11:22:19.233Z,129.40
2019-02-05T11:24:51.916Z,132.00
2019-02-05T11:27:23.534Z,137.00
2019-02-05T11:29:54.915Z,133.40
2019-02-05T11:32:26.284Z,132.00
2019-02-05T11:34:57.781Z,136.20
2019-02-05T11:37:29.085Z,125.80
2019-02-05T11:40:00.531Z,129.20
2019-02-05T11:42:32.770Z,125.20
2019-02-05T11:45:04.700Z,121.40
2019-02-05T11:47:36.662Z,128.20
2019-02-05T11:50:09.501Z,140.40
2019-02-05T11:52:40.877Z,130.80
2019-02-05T11:55:14.557Z,133.60
2019-02-05T11:57:46.405Z,128.60
2019-02-05T12:00:32.873Z,139.80
2019-02-05T12:02:59.741Z,143.20
2019-02-05T12:05:32.034Z,137.60
2019-02-05T12:08:08.049Z,155.80
2019-02-05T12:10:39.575Z,157.20
2019-02-05T12:13:11.685Z,141.40
2019-02-05T12:15:43.282Z,161.00
2019-02-05T12:18:14.828Z,158.20
2019-02-05T12:20:46.575Z,144.00
2019-02-05T12:23:17.925Z,152.60
2019-02-05T12:25:49.146Z,164.60
2019-02-05T12:28:20.599Z,180.00
2019-02-05T12:30:52.139Z,188.25
2019-02-05T12:33:23.899Z,194.00
2019-02-05T12:35:55.052Z,186.00
2019-02-05T12:38:26.458Z,184.50
2019-02-05T12:40:58.079Z,220.00
2019-02-05T12:43:29.729Z,213.25
2019-02-05T12:46:00.881Z,222.25
2019-02-05T12:48:32.798Z,194.75
2019-02-05T12:51:04.868Z,191.00
2019-02-05T12:53:38.070Z,190.25
2019-02-05T12:56:09.330Z,168.50
2019-02-05T12:58:40.717Z,176.60
2019-02-05T13:01:12.608Z,165.60
2019-02-05T13:03:43.997Z,161.20
2019-02-05T13:06:15.542Z,166.60
2019-02-05T13:08:47.260Z,173.00
2019-02-05T13:11:18.809Z,169.20
2019-02-05T13:13:50.755Z,172.40
2019-02-05T13:16:22.347Z,160.40
2019-02-05T13:18:53.810Z,168.00
2019-02-05T13:21:25.189Z,167.00
2019-02-05T13:23:56.507Z,178.20
2019-02-05T13:26:28.064Z,158.80
2019-02-05T13:28:59.402Z,164.20
2019-02-05T13:31:30.548Z,164.00
2019-02-05T13:34:02.168Z,175.80
2019-02-05T13:36:33.668Z,156.60
2019-02-05T13:39:09.676Z,172.75
2019-02-05T13:41:41.632Z,169.25
2019-02-05T13:44:13.118Z,174.50
2019-02-05T13:46:44.262Z,187.25
2019-02-05T13:49:16.113Z,179.50
2019-02-05T13:51:47.659Z,189.50
2019-02-05T13:54:19.078Z,171.00
2019-02-05T13:56:52.669Z,188.00
2019-02-05T13:59:24.176Z,169.00
2019-02-05T14:01:58.271Z,182.00
2019-02-05T14:04:29.820Z,184.75
2019-02-05T14:07:01.400Z,193.75
2019-02-05T14:09:32.811Z,179.75
2019-02-05T14:12:03.938Z,184.25
2019-02-05T14:14:35.628Z,189.25
2019-02-05T14:17:07.288Z,179.50
2019-02-05T14:19:42.300Z,191.00
2019-02-05T14:22:14.640Z,202.25
2019-02-05T14:24:45.791Z,181.25
2019-02-05T14:27:16.772Z,174.75
2019-02-05T14:29:48.199Z,188.00
2019-02-05T14:32:19.634Z,177.75
2019-02-05T14:34:51.093Z,209.25
2019-02-05T14:37:22.552Z,176.75
2019-02-05T14:40:01.638Z,189.25
2019-02-05T14:42:33.144Z,190.00
2019-02-05T14:45:05.200Z,170.00
2019-02-05T14:47:36.600Z,168.25
2019-02-05T14:50:11.404Z,188.25
2019-02-05T14:52:42.644Z,201.00
2019-02-05T14:55:14.012Z,194.75
2019-02-05T14:57:45.100Z,194.00
2019-02-05T15:00:26.190Z,197.00
2019-02-05T15:02:58.253Z,213.00
2019-02-05T15:05:29.794Z,189.75
2019-02-05T15:08:01.266Z,192.00
2019-02-05T15:10:32.984Z,185.25
2019-02-05T15:13:06.701Z,197.25
2019-02-05T15:15:38.502Z,187.75
2019-02-05T15:18:13.204Z,191.75
2019-02-05T15:20:46.924Z,194.75
2019-02-05T15:23:21.084Z,203.00
2019-02-05T15:25:52.657Z,232.25
2019-02-05T15:28:24.261Z,240.00
2019-02-05T15:30:55.615Z,208.00
2019-02-05T15:33:48.390Z,201.50
2019-02-05T15:36:33.405Z,210.50
2019-02-05T15:39:12.848Z,210.75
2019-02-05T15:41:44.045Z,211.50
2019-02-05T15:44:15.918Z,197.00
2019-02-05T15:46:47.051Z,219.75
2019-02-05T15:49:18.342Z,209.50
2019-02-05T15:51:49.913Z,193.00
2019-02-05T15:54:21.405Z,205.00
2019-02-05T15:56:53.266Z,210.50
2019-02-05T15:59:24.730Z,206.25
2019-02-05T16:02:06.063Z,210.25
2019-02-05T16:04:30.488Z,202.00
2019-02-05T16:07:01.741Z,189.50
2019-02-05T16:09:33.305Z,185.00
2019-02-05T16:12:04.649Z,206.75
2019-02-05T16:14:36.008Z,204.25
2019-02-05T16:17:07.402Z,195.75
2019-02-05T16:19:38.728Z,193.75
2019-02-05T16:22:10.464Z,186.50
2019-02-05T16:24:43.760Z,195.00
2019-02-05T16:27:15.469Z,192.75
2019-02-05T16:29:46.963Z,209.25
2019-02-05T16:32:18.240Z,196.00
2019-02-05T16:34:49.821Z,186.25
2019-02-05T16:37:21.438Z,195.25
2019-02-05T16:39:53.823Z,182.25
2019-02-05T16:42:25.380Z,187.50
2019-02-05T16:44:56.731Z,177.75
2019-02-05T16:47:28.474Z,177.20
2019-02-05T16:50:00.218Z,177.80
2019-02-05T16:52:32.114Z,171.80
2019-02-05T16:55:03.944Z,154.80
2019-02-05T16:57:35.225Z,176.80
2019-02-05T17:00:13.281Z,164.40
2019-02-05T17:02:45.475Z,157.80
2019-02-05T17:05:18.213Z,158.60
2019-02-05T17:07:49.841Z,155.80
2019-02-05T17:10:22.154Z,172.00
2019-02-05T17:12:53.511Z,162.40
2019-02-05T17:15:25.128Z,172.20
2019-02-05T17:17:56.754Z,164.20
2019-02-05T17:20:29.822Z,157.60
2019-02-05T17:23:01.651Z,166.80
2019-02-05T17:25:35.909Z,155.40
2019-02-05T17:28:06.884Z,160.00
2019-02-05T17:30:39.538Z,161.00
2019-02-05T17:33:11.536Z,162.40
2019-02-05T17:35:43.182Z,154.60
2019-02-05T17:38:15.565Z,158.00
2019-02-05T17:40:46.931Z,157.80
2019-02-05T17:43:18.650Z,163.60
2019-02-05T17:45:50.309Z,169.00
2019-02-05T17:48:21.904Z,158.80
2019-02-05T17:50:53.406Z,146.80
2019-02-05T17:53:25.180Z,164.80
2019-02-05T17:55:56.425Z,150.00
2019-02-05T17:58:27.817Z,144.20
2019-02-05T18:01:11.284Z,148.80
2019-02-05T18:03:42.857Z,164.40
2019-02-05T18:06:14.857Z,155.40
2019-02-05T18:08:46.067Z,163.80
2019-02-05T18:11:17.569Z,151.40
2019-02-05T18:13:48.782Z,135.40
2019-02-05T18:16:21.245Z,160.80
2019-02-05T18:18:52.583Z,149.60
2019-02-05T18:21:24.146Z,141.00
2019-02-05T18:23:55.667Z,158.40
2019-02-05T18:26:27.322Z,167.40
2019-02-05T18:28:58.490Z,142.00
2019-02-05T18:31:31.042Z,169.20
2019-02-05T18:34:02.226Z,153.80
2019-02-05T18:36:33.899Z,160.20
2019-02-05T18:39:07.863Z,158.40
2019-02-05T18:41:41.505Z,155.80
2019-02-05T18:44:12.872Z,153.20
2019-02-05T18:46:44.432Z,171.40
2019-02-05T18:49:15.870Z,152.00
2019-02-05T18:51:47.975Z,167.40
2019-02-05T18:54:19.561Z,152.00
2019-02-05T18:56:50.925Z,152.00
2019-02-05T18:59:22.470Z,158.40
2019-02-05T19:01:53.720Z,146.40
2019-02-05T19:04:24.942Z,151.20
2019-02-05T19:06:57.376Z,148.80
2019-02-05T19:09:28.734Z,152.00
2019-02-05T19:12:04.162Z,136.00
2019-02-05T19:14:33.183Z,152.20
2019-02-05T19:17:04.907Z,147.00
2019-02-05T19:19:36.817Z,142.40
2019-02-05T19:22:08.299Z,146.80
2019-02-05T19:25:07.625Z,137.40
2019-02-05T19:27:39.482Z,142.00
2019-02-05T19:30:12.884Z,132.80
2019-02-05T19:32:44.236Z,147.20
2019-02-05T19:35:16.111Z,128.40
2019-02-05T19:37:48.564Z,138.80
2019-02-05T19:40:20.006Z,137.60
2019-02-05T19:42:51.303Z,134.20
2019-02-05T19:45:44.632Z,136.20
2019-02-05T19:48:25.162Z,132.40
2019-02-05T19:50:56.789Z,131.60
2019-02-05T19:53:28.254Z,141.20
2019-02-05T19:55:59.948Z,128.40
2019-02-05T19:58:31.522Z,128.80
2019-02-05T20:01:03.277Z,138.60
2019-02-05T20:03:38.812Z,136.40
2019-02-05T20:06:07.426Z,133.40
2019-02-05T20:08:38.664Z,127.20
2019-02-05T20:11:11.011Z,128.00
2019-02-05T20:13:42.452Z,120.60
2019-02-05T20:16:13.728Z,129.20
2019-02-05T20:18:44.887Z,130.00
2019-02-05T20:21:16.718Z,146.80
2019-02-05T20:23:48.067Z,133.40
2019-02-05T20:26:20.018Z,141.60
2019-02-05T20:28:51.307Z,122.80
2019-02-05T20:31:23.654Z,132.20
2019-02-05T20:33:54.807Z,139.60
2019-02-05T20:36:26.151Z,134.20
2019-02-05T20:38:57.592Z,126.80
2019-02-05T20:41:29.183Z,137.80
2019-02-05T20:44:00.425Z,145.80
2019-02-05T20:46:31.922Z,140.20
2019-02-05T20:49:03.306Z,137.00
2019-02-05T20:51:37.570Z,134.00
2019-02-05T20:54:09.311Z,132.80
2019-02-05T20:56:40.867Z,135.80
2019-02-05T20:59:31.883Z,126.20
2019-02-05T21:02:03.287Z,103.00
2019-02-05T21:04:35.612Z,126.80
2019-02-05T21:07:07.516Z,142.60
2019-02-05T21:09:42.252Z,118.60
2019-02-05T21:12:14.053Z,138.20
2019-02-05T21:14:45.388Z,122.40
2019-02-05T21:17:17.262Z,118.40
2019-02-05T21:19:48.861Z,103.00
2019-02-05T21:22:20.000Z,122.40
2019-02-05T21:24:51.164Z,112.20
2019-02-05T21:27:22.578Z,108.60
2019-02-05T21:29:54.049Z,108.00
2019-02-05T21:32:25.501Z,108.80
2019-02-05T21:34:56.821Z,113.80
2019-02-05T21:37:28.270Z,116.00
2019-02-05T21:40:02.489Z,122.40
2019-02-05T21:42:33.384Z,120.80
2019-02-05T21:45:05.386Z,126.60
2019-02-05T21:47:37.304Z,106.00
2019-02-05T21:50:11.447Z,108.80
2019-02-05T21:52:43.071Z,122.60
2019-02-05T21:55:15.044Z,132.40
2019-02-05T21:57:46.504Z,139.40
2019-02-05T22:00:29.210Z,118.20
2019-02-05T22:03:00.768Z,127.20
2019-02-05T22:05:32.217Z,114.40
2019-02-05T22:08:04.187Z,111.40
2019-02-05T22:10:35.456Z,128.60
2019-02-05T22:13:07.421Z,113.20
2019-02-05T22:15:39.031Z,120.00
2019-02-05T22:18:10.384Z,94.80
2019-02-05T22:20:41.844Z,112.60
2019-02-05T22:23:13.389Z,122.40
2019-02-05T22:25:45.251Z,116.40
2019-02-05T22:28:16.517Z,104.60
2019-02-05T22:30:48.792Z,110.00
2019-02-05T22:33:20.060Z,123.00
2019-02-05T22:35:51.776Z,107.80
2019-02-05T22:38:23.941Z,118.40
2019-02-05T22:40:56.425Z,117.80
2019-02-05T22:43:27.692Z,129.00
2019-02-05T22:45:59.125Z,130.60
2019-02-05T22:48:30.941Z,119.60
2019-02-05T22:51:02.365Z,114.60
2019-02-05T22:53:33.923Z,111.60
2019-02-05T22:56:05.636Z,120.20
2019-02-05T22:58:37.299Z,115.20
2019-02-05T23:01:26.195Z,114.60
2019-02-05T23:04:18.609Z,130.80
2019-02-05T23:07:20.131Z,107.40
2019-02-05T23:10:00.375Z,127.00
2019-02-05T23:12:39.423Z,133.00
2019-02-05T23:15:28.821Z,128.20
2019-02-05T23:17:58.882Z,130.60
2019-02-05T23:20:31.004Z,129.40
2019-02-05T23:23:02.497Z,119.60
2019-02-05T23:25:34.043Z,127.60
2019-02-05T23:28:05.420Z,119.00
2019-02-05T23:30:37.011Z,114.60
2019-02-05T23:33:08.136Z,129.60
2019-02-05T23:35:42.933Z,123.60
2019-02-05T23:38:14.238Z,120.80
2019-02-05T23:40:45.473Z,113.20
2019-02-05T23:43:17.392Z,121.00
2019-02-05T23:46:00.895Z,113.20
2019-02-05T23:48:23.104Z,122.00
2019-02-05T23:50:54.531Z,104.80
2019-02-05T23:53:25.892Z,109.40
2019-02-05T23:55:58.731Z,114.20
2019-02-05T23:58:32.176Z,117.60
